首页
METAR-TAF:

METAR-TAF

机场 :

Nueces County Airport

Robstown, 得克萨斯州, 美国

纬度: 27-46-42N, 经度: 097-41-25W, 海拔: 24米

当前天气观测

该预报发布于38分钟前的01:10 UTC
风速8节,风向
温度 28°C
湿度 89%
气压 1008 hPa
能見度: 16.1公里
散云层高于1900英尺
散云层高于2400英尺

METAR: KRBO 210110Z AUTO 10008KT 10SM SCT019 SCT024 28/26 A2978 RMK AO2 T02840255

时间: 20:48 (01:48 UTC)


TAF: 丢失

超过4000个机场的气象观测和天气预报(METAR&TAF报告)。

可查询的气象台以黄色和红色小点在地图上表示。

将鼠标移到小点上方,可查看气象台名称。

然后点击查看天气观测和预报。

如需切换地图:点击带黑十字的绿色按钮放大地图;点击带横线的绿色按钮缩小地图;或者点击绿色箭头查看邻近地区的地图。


METAR-TAF: